Time;durP1;ratioP1;P1;durP2;ratioP2;P2;SDS_P1;SDS_P2;PMS_P1;PMS_P2;Temp;Humidity;BMP_temperature;BMP_pressure;BME280_temperature;BME280_humidity;BME280_pressure;Samples;Min_cycle;Max_cycle;Signal;HPM_P1;HPM_P2
2022/07/03 00:01:20;;;;;;;;;;;;;;;;;;4938748;28;19933;-67
2022/07/03 00:03:45;;;;;;;;;;;;;;;;;;4961836;28;19922;-67
2022/07/03 00:06:10;;;;;;;;;;;;;;;;;;4943714;28;19954;-66
2022/07/03 00:08:35;;;;;;;;;;;;;;;;;;4947520;28;19925;-68
2022/07/03 00:11:00;;;;;;;;;;;;;;;;;;4942803;28;20135;-68
2022/07/03 00:13:26;;;;;;;;;;;;;;;;;;4943575;28;19919;-67
2022/07/03 00:15:51;;;;;;;;;;;;;;;;;;4949697;28;19929;-67
2022/07/03 00:18:16;;;;;;;;;;;;;;;;;;4942156;28;19923;-66
2022/07/03 00:20:41;;;;;;;;;;;;;;;;;;4949027;28;20286;-67
2022/07/03 00:23:06;;;;;;;;;;;;;;;;;;4940614;28;19933;-67
2022/07/03 00:25:33;;;;;;;;;;;;;;;;;;4943275;28;19973;-67
2022/07/03 00:27:58;;;;;;;;;;;;;;;;;;4947000;28;20435;-65
2022/07/03 00:30:24;;;;;;;;;;;;;;;;;;4947565;28;19933;-65
2022/07/03 00:32:50;;;;;;;;;;;;;;;;;;4948514;28;20601;-67
2022/07/03 00:35:15;;;;;;;;;;;;;;;;;;4941683;28;19918;-67
2022/07/03 00:37:41;;;;;;;;;;;;;;;;;;4955973;28;20003;-67
2022/07/03 00:40:06;;;;;;;;;;;;;;;;;;4946117;28;19925;-66
2022/07/03 00:42:31;;;;;;;;;;;;;;;;;;4952835;28;19918;-66
2022/07/03 00:44:56;;;;;;;;;;;;;;;;;;4950752;28;19969;-66
2022/07/03 00:47:22;;;;;;;;;;;;;;;;;;4942145;28;20020;-66
2022/07/03 00:49:47;;;;;;;;;;;;;;;;;;4943714;28;19914;-66
2022/07/03 00:52:12;;;;;;;;;;;;;;;;;;4937062;28;19918;-67
2022/07/03 00:54:37;;;;;;;;;;;;;;;;;;4939413;28;20430;-66
2022/07/03 00:57:03;;;;;;;;;;;;;;;;;;4949152;28;19953;-68
2022/07/03 00:59:28;;;;;;;;;;;;;;;;;;4957772;28;20462;-66
2022/07/03 01:01:54;;;;;;;;;;;;;;;;;;4959248;28;19940;-66
2022/07/03 01:04:19;;;;;;;;;;;;;;;;;;4953642;28;19918;-66
2022/07/03 01:06:45;;;;;;;;;;;;;;;;;;4945154;28;19925;-66
2022/07/03 01:09:10;;;;;;;;;;;;;;;;;;4950219;28;19941;-66
2022/07/03 01:11:35;;;;;;;;;;;;;;;;;;4946604;28;19941;-66
2022/07/03 01:14:00;;;;;;;;;;;;;;;;;;4945263;28;20457;-67
2022/07/03 01:16:26;;;;;;;;;;;;;;;;;;4952157;28;19926;-66
2022/07/03 01:18:51;;;;;;;;;;;;;;;;;;4946526;28;19992;-66
2022/07/03 01:21:16;;;;;;;;;;;;;;;;;;4952246;28;20377;-66
2022/07/03 01:23:41;;;;;;;;;;;;;;;;;;4945911;28;19918;-67
2022/07/03 01:26:07;;;;;;;;;;;;;;;;;;4944904;28;20368;-67
2022/07/03 01:28:32;;;;;;;;;;;;;;;;;;4967028;28;19922;-67
2022/07/03 01:30:57;;;;;;;;;;;;;;;;;;4947947;28;20274;-67
2022/07/03 01:33:22;;;;;;;;;;;;;;;;;;4951920;28;19976;-64
2022/07/03 01:35:47;;;;;;;;;;;;;;;;;;4949542;28;19923;-67
2022/07/03 01:38:13;;;;;;;;;;;;;;;;;;4945095;28;19930;-67
2022/07/03 01:40:38;;;;;;;;;;;;;;;;;;4964767;28;20017;-68
2022/07/03 01:43:03;;;;;;;;;;;;;;;;;;4957108;28;20279;-65
2022/07/03 01:45:28;;;;;;;;;;;;;;;;;;4950954;28;20000;-65
2022/07/03 01:47:54;;;;;;;;;;;;;;;;;;4945629;28;19922;-66
2022/07/03 01:50:19;;;;;;;;;;;;;;;;;;4945460;28;19918;-66
2022/07/03 01:52:44;;;;;;;;;;;;;;;;;;4939674;28;19949;-65
2022/07/03 01:55:09;;;;;;;;;;;;;;;;;;4946223;28;19938;-66
2022/07/03 01:57:34;;;;;;;;;;;;;;;;;;4949530;28;20397;-66
2022/07/03 02:00:00;;;;;;;;;;;;;;;;;;4945360;28;19926;-67
2022/07/03 02:02:25;;;;;;;;;;;;;;;;;;4943703;28;19925;-67
2022/07/03 02:04:50;;;;;;;;;;;;;;;;;;4952972;28;19925;-67
2022/07/03 02:07:15;;;;;;;;;;;;;;;;;;4944756;28;19925;-66
2022/07/03 02:09:41;;;;;;;;;;;;;;;;;;4951409;28;19964;-66
2022/07/03 02:12:06;;;;;;;;;;;;;;;;;;4959573;28;19918;-67
2022/07/03 02:14:31;;;;;;;;;;;;;;;;;;4960091;28;19918;-66
2022/07/03 02:16:57;;;;;;;;;;;;;;;;;;4935902;28;20428;-66
2022/07/03 02:19:22;;;;;;;;;;;;;;;;;;4946837;28;19957;-67
2022/07/03 02:21:47;;;;;;;;;;;;;;;;;;4962185;28;20198;-67
2022/07/03 02:24:12;;;;;;;;;;;;;;;;;;4944217;28;19919;-66
2022/07/03 02:26:38;;;;;;;;;;;;;;;;;;4946312;28;19930;-66
2022/07/03 02:29:03;;;;;;;;;;;;;;;;;;4951482;28;19922;-65
2022/07/03 02:31:28;;;;;;;;;;;;;;;;;;4943706;28;19965;-67
2022/07/03 02:33:53;;;;;;;;;;;;;;;;;;4965109;28;20299;-68
2022/07/03 02:36:18;;;;;;;;;;;;;;;;;;4947745;28;19969;-65
2022/07/03 02:38:44;;;;;;;;;;;;;;;;;;4945153;28;19965;-65
2022/07/03 02:41:10;;;;;;;;;;;;;;;;;;4964676;28;20343;-67
2022/07/03 02:43:35;;;;;;;;;;;;;;;;;;4945430;28;19918;-67
2022/07/03 02:46:00;;;;;;;;;;;;;;;;;;4949855;28;19918;-66
2022/07/03 02:48:25;;;;;;;;;;;;;;;;;;4956994;28;19961;-67
2022/07/03 02:50:51;;;;;;;;;;;;;;;;;;4945970;28;20470;-66
2022/07/03 02:53:16;;;;;;;;;;;;;;;;;;4953552;28;19922;-67
2022/07/03 02:55:42;;;;;;;;;;;;;;;;;;4944761;28;19918;-68
2022/07/03 02:58:07;;;;;;;;;;;;;;;;;;4947809;28;19926;-66
2022/07/03 03:00:32;;;;;;;;;;;;;;;;;;4945987;28;20872;-67
2022/07/03 03:02:58;;;;;;;;;;;;;;;;;;4942347;28;20374;-66
2022/07/03 03:05:23;;;;;;;;;;;;;;;;;;4951033;28;19918;-66
2022/07/03 03:07:48;;;;;;;;;;;;;;;;;;4946396;28;20635;-65
2022/07/03 03:10:13;;;;;;;;;;;;;;;;;;4950948;28;20328;-65
2022/07/03 03:12:38;;;;;;;;;;;;;;;;;;4948728;28;19929;-66
2022/07/03 03:15:04;;;;;;;;;;;;;;;;;;4947197;28;20633;-66
2022/07/03 03:17:29;;;;;;;;;;;;;;;;;;4956055;28;19922;-66
2022/07/03 03:19:54;;;;;;;;;;;;;;;;;;4933452;28;20300;-66
2022/07/03 03:22:19;;;;;;;;;;;;;;;;;;4950684;28;20399;-66
2022/07/03 03:24:44;;;;;;;;;;;;;;;;;;4945985;28;19923;-67
2022/07/03 03:27:10;;;;;;;;;;;;;;;;;;4942974;28;19918;-66
2022/07/03 03:29:35;;;;;;;;;;;;;;;;;;4948975;28;19925;-67
2022/07/03 03:32:00;;;;;;;;;;;;;;;;;;4943000;28;19918;-66
2022/07/03 03:34:25;;;;;;;;;;;;;;;;;;4949052;28;19921;-67
2022/07/03 03:36:51;;;;;;;;;;;;;;;;;;4945488;28;19922;-66
2022/07/03 03:39:16;;;;;;;;;;;;;;;;;;4946648;28;19969;-66
2022/07/03 03:41:41;;;;;;;;;;;;;;;;;;4948732;28;19946;-67
2022/07/03 03:44:06;;;;;;;;;;;;;;;;;;4941161;28;20008;-66
2022/07/03 03:46:31;;;;;;;;;;;;;;;;;;4952652;28;19973;-68
2022/07/03 03:48:57;;;;;;;;;;;;;;;;;;4941054;28;19976;-66
2022/07/03 03:51:22;;;;;;;;;;;;;;;;;;4942896;28;19972;-66
2022/07/03 03:53:47;;;;;;;;;;;;;;;;;;4963980;28;19919;-67
2022/07/03 03:56:14;;;;;;;;;;;;;;;;;;4942630;28;19922;-66
2022/07/03 03:58:39;;;;;;;;;;;;;;;;;;4950015;28;19929;-66
2022/07/03 04:01:05;;;;;;;;;;;;;;;;;;4943059;28;19922;-66
2022/07/03 04:03:30;;;;;;;;;;;;;;;;;;4946041;28;19926;-66
2022/07/03 04:05:55;;;;;;;;;;;;;;;;;;4951098;28;19919;-66
2022/07/03 04:08:20;;;;;;;;;;;;;;;;;;4942709;28;20516;-66
2022/07/03 04:10:45;;;;;;;;;;;;;;;;;;4961118;28;19918;-66
2022/07/03 04:13:11;;;;;;;;;;;;;;;;;;4927428;28;19926;-66
2022/07/03 04:15:36;;;;;;;;;;;;;;;;;;4939948;28;19997;-66
2022/07/03 04:18:01;;;;;;;;;;;;;;;;;;4960666;28;20324;-66
2022/07/03 04:20:26;;;;;;;;;;;;;;;;;;4957959;28;20298;-66
2022/07/03 04:22:51;;;;;;;;;;;;;;;;;;4960092;28;19989;-67
2022/07/03 04:25:17;;;;;;;;;;;;;;;;;;4943688;28;20508;-67
2022/07/03 04:27:42;;;;;;;;;;;;;;;;;;4939112;28;20619;-67
2022/07/03 04:30:10;;;;;;;;;;;;;;;;;;4947962;28;19922;-68
2022/07/03 04:32:35;;;;;;;;;;;;;;;;;;4943136;28;19922;-65
2022/07/03 04:35:00;;;;;;;;;;;;;;;;;;4941205;28;20276;-67
2022/07/03 04:37:25;;;;;;;;;;;;;;;;;;4947025;28;19923;-66
2022/07/03 04:39:51;;;;;;;;;;;;;;;;;;4961100;28;19922;-66
2022/07/03 04:42:16;;;;;;;;;;;;;;;;;;4952128;28;19918;-67
2022/07/03 04:44:41;;;;;;;;;;;;;;;;;;4959431;28;19957;-66
2022/07/03 04:47:06;;;;;;;;;;;;;;;;;;4952800;28;19962;-66
2022/07/03 04:49:31;;;;;;;;;;;;;;;;;;4946662;28;19918;-68
2022/07/03 04:51:57;;;;;;;;;;;;;;;;;;4948065;28;19948;-66
2022/07/03 04:54:22;;;;;;;;;;;;;;;;;;4950940;28;20276;-66
2022/07/03 04:56:47;;;;;;;;;;;;;;;;;;4957107;28;19945;-66
2022/07/03 04:59:12;;;;;;;;;;;;;;;;;;4950573;28;19993;-66
2022/07/03 05:01:38;;;;;;;;;;;;;;;;;;4943734;28;19972;-66
2022/07/03 05:04:03;;;;;;;;;;;;;;;;;;4952662;28;20005;-66
2022/07/03 05:06:28;;;;;;;;;;;;;;;;;;4957068;28;20372;-67
2022/07/03 05:08:53;;;;;;;;;;;;;;;;;;4938718;28;19924;-66
2022/07/03 05:11:19;;;;;;;;;;;;;;;;;;4946941;28;19925;-66
2022/07/03 05:13:44;;;;;;;;;;;;;;;;;;4939218;28;19967;-66
2022/07/03 05:16:09;;;;;;;;;;;;;;;;;;4939335;28;19922;-66
2022/07/03 05:18:35;;;;;;;;;;;;;;;;;;4929791;28;19926;-66
2022/07/03 05:21:00;;;;;;;;;;;;;;;;;;4940443;28;20119;-66
2022/07/03 05:23:25;;;;;;;;;;;;;;;;;;4945967;28;19919;-66
2022/07/03 05:25:51;;;;;;;;;;;;;;;;;;4952920;28;20435;-67
2022/07/03 05:28:16;;;;;;;;;;;;;;;;;;4951999;28;19925;-67
2022/07/03 05:30:41;;;;;;;;;;;;;;;;;;4946770;28;20012;-65
2022/07/03 05:33:06;;;;;;;;;;;;;;;;;;4950904;28;19933;-66
2022/07/03 05:35:31;;;;;;;;;;;;;;;;;;4944384;28;20331;-66
2022/07/03 05:37:57;;;;;;;;;;;;;;;;;;4936870;28;19930;-66
2022/07/03 05:40:22;;;;;;;;;;;;;;;;;;4938777;28;19926;-66
2022/07/03 05:42:47;;;;;;;;;;;;;;;;;;4935946;28;19918;-66
2022/07/03 05:45:12;;;;;;;;;;;;;;;;;;4938790;28;19918;-66
2022/07/03 05:47:38;;;;;;;;;;;;;;;;;;4957667;28;19918;-66
2022/07/03 05:50:03;;;;;;;;;;;;;;;;;;4930069;28;20149;-66
2022/07/03 05:52:28;;;;;;;;;;;;;;;;;;4940028;28;19929;-67
2022/07/03 05:54:53;;;;;;;;;;;;;;;;;;4944372;28;19917;-67
2022/07/03 05:57:20;;;;;;;;;;;;;;;;;;4936644;28;19968;-67
2022/07/03 05:59:45;;;;;;;;;;;;;;;;;;4959352;28;19930;-67
2022/07/03 06:02:10;;;;;;;;;;;;;;;;;;4938941;28;19918;-68
2022/07/03 06:04:36;;;;;;;;;;;;;;;;;;4939471;28;20116;-67
2022/07/03 06:07:01;;;;;;;;;;;;;;;;;;4959977;28;19942;-67
2022/07/03 06:09:26;;;;;;;;;;;;;;;;;;4938015;28;20320;-67
2022/07/03 06:11:51;;;;;;;;;;;;;;;;;;4944814;28;20461;-67
2022/07/03 06:14:16;;;;;;;;;;;;;;;;;;4937735;28;20245;-67
2022/07/03 06:16:42;;;;;;;;;;;;;;;;;;4937046;28;19926;-67
2022/07/03 06:19:07;;;;;;;;;;;;;;;;;;4942608;28;20407;-67
2022/07/03 06:21:32;;;;;;;;;;;;;;;;;;4937782;28;19944;-67
2022/07/03 06:23:58;;;;;;;;;;;;;;;;;;4945286;28;19918;-67
2022/07/03 06:26:23;;;;;;;;;;;;;;;;;;4938977;28;19977;-67
2022/07/03 06:28:48;;;;;;;;;;;;;;;;;;4949768;28;19922;-66
2022/07/03 06:31:13;;;;;;;;;;;;;;;;;;4943829;28;20009;-67
2022/07/03 06:33:38;;;;;;;;;;;;;;;;;;4929157;28;19925;-67
2022/07/03 06:36:04;;;;;;;;;;;;;;;;;;4945167;28;19922;-67
2022/07/03 06:38:29;;;;;;;;;;;;;;;;;;4937767;28;19989;-68
2022/07/03 06:40:54;;;;;;;;;;;;;;;;;;4938641;28;19972;-67
2022/07/03 06:43:19;;;;;;;;;;;;;;;;;;4944100;28;19933;-67
2022/07/03 06:45:44;;;;;;;;;;;;;;;;;;4939139;28;19922;-67
2022/07/03 06:48:10;;;;;;;;;;;;;;;;;;4948388;28;20284;-69
2022/07/03 06:50:35;;;;;;;;;;;;;;;;;;4928796;28;20660;-68
2022/07/03 06:53:00;;;;;;;;;;;;;;;;;;4953496;28;20652;-68
2022/07/03 06:55:26;;;;;;;;;;;;;;;;;;4947614;28;20469;-67
2022/07/03 06:57:51;;;;;;;;;;;;;;;;;;4936597;28;20874;-68
2022/07/03 07:00:16;;;;;;;;;;;;;;;;;;4957844;28;20418;-68
2022/07/03 07:02:41;;;;;;;;;;;;;;;;;;4936280;28;19930;-68
2022/07/03 07:05:07;;;;;;;;;;;;;;;;;;4952427;28;19918;-68
2022/07/03 07:07:32;;;;;;;;;;;;;;;;;;4957617;28;20065;-67
2022/07/03 07:09:57;;;;;;;;;;;;;;;;;;4938838;28;20556;-68
2022/07/03 07:12:22;;;;;;;;;;;;;;;;;;4942060;28;19928;-68
2022/07/03 07:14:47;;;;;;;;;;;;;;;;;;4934359;28;20324;-67
2022/07/03 07:17:13;;;;;;;;;;;;;;;;;;4937653;28;20358;-68
2022/07/03 07:19:38;;;;;;;;;;;;;;;;;;4943802;28;20379;-69
2022/07/03 07:22:03;;;;;;;;;;;;;;;;;;4937696;28;19918;-68
2022/07/03 07:24:28;;;;;;;;;;;;;;;;;;4942307;28;19930;-68
2022/07/03 07:26:54;;;;;;;;;;;;;;;;;;4935733;28;20184;-69
2022/07/03 07:29:19;;;;;;;;;;;;;;;;;;4937634;28;20604;-69
2022/07/03 07:31:44;;;;;;;;;;;;;;;;;;4957442;28;19988;-69
2022/07/03 07:34:09;;;;;;;;;;;;;;;;;;4935068;28;20001;-70
2022/07/03 07:36:35;;;;;;;;;;;;;;;;;;4944100;28;19949;-70
2022/07/03 07:39:00;;;;;;;;;;;;;;;;;;4936589;28;19922;-69
2022/07/03 07:41:25;;;;;;;;;;;;;;;;;;4935280;28;19922;-68
2022/07/03 07:43:50;;;;;;;;;;;;;;;;;;4943579;28;19918;-69
2022/07/03 07:46:16;;;;;;;;;;;;;;;;;;4935689;28;20304;-69
2022/07/03 07:48:41;;;;;;;;;;;;;;;;;;4940150;28;20449;-68
2022/07/03 07:51:06;;;;;;;;;;;;;;;;;;4937036;28;19918;-67
2022/07/03 07:53:31;;;;;;;;;;;;;;;;;;4939082;28;20111;-67
2022/07/03 07:55:56;;;;;;;;;;;;;;;;;;4942624;28;19922;-67
2022/07/03 07:58:22;;;;;;;;;;;;;;;;;;4935703;28;20355;-68
2022/07/03 08:06:15;;;;;;;;;;;;;;;;;;4947779;28;20009;-68
2022/07/03 08:08:40;;;;;;;;;;;;;;;;;;4944151;28;19922;-69
2022/07/03 08:11:06;;;;;;;;;;;;;;;;;;4937209;28;20152;-71
2022/07/03 08:13:31;;;;;;;;;;;;;;;;;;4937087;28;19926;-69
2022/07/03 08:15:56;;;;;;;;;;;;;;;;;;4946120;28;19993;-69
2022/07/03 08:18:21;;;;;;;;;;;;;;;;;;4937646;28;19929;-69
2022/07/03 08:20:46;;;;;;;;;;;;;;;;;;4944037;28;19918;-69
2022/07/03 08:23:12;;;;;;;;;;;;;;;;;;4949558;28;20005;-68
2022/07/03 08:25:37;;;;;;;;;;;;;;;;;;4938292;28;19918;-68
2022/07/03 08:28:02;;;;;;;;;;;;;;;;;;4939202;28;20001;-68
2022/07/03 08:30:28;;;;;;;;;;;;;;;;;;4936855;28;19926;-68
2022/07/03 08:32:53;;;;;;;;;;;;;;;;;;4928555;28;19957;-68
2022/07/03 08:35:18;;;;;;;;;;;;;;;;;;4949514;28;19997;-67
2022/07/03 08:37:46;;;;;;;;;;;;;;;;;;4948717;28;19934;-68
2022/07/03 08:40:11;;;;;;;;;;;;;;;;;;4942637;28;19918;-68
2022/07/03 08:42:36;;;;;;;;;;;;;;;;;;4920704;28;20258;-69
2022/07/03 08:45:01;;;;;;;;;;;;;;;;;;4942410;28;20313;-71
2022/07/03 08:47:27;;;;;;;;;;;;;;;;;;4923291;28;20453;-71
2022/07/03 08:49:52;;;;;;;;;;;;;;;;;;4948374;28;19918;-69
2022/07/03 08:52:17;;;;;;;;;;;;;;;;;;4945592;28;19995;-71
2022/07/03 08:54:42;;;;;;;;;;;;;;;;;;4938781;28;20620;-71
2022/07/03 08:57:08;;;;;;;;;;;;;;;;;;4942451;28;20279;-72
2022/07/03 08:59:33;;;;;;;;;;;;;;;;;;4936372;28;20433;-71
2022/07/03 09:01:58;;;;;;;;;;;;;;;;;;4923086;28;19917;-70
2022/07/03 09:04:23;;;;;;;;;;;;;;;;;;4944094;28;19918;-70
2022/07/03 09:06:49;;;;;;;;;;;;;;;;;;4935850;28;19918;-70
2022/07/03 09:09:14;;;;;;;;;;;;;;;;;;4957673;28;19925;-71
2022/07/03 09:11:40;;;;;;;;;;;;;;;;;;4953491;28;20400;-69
2022/07/03 09:14:06;;;;;;;;;;;;;;;;;;4938770;28;20335;-68
2022/07/03 09:16:31;;;;;;;;;;;;;;;;;;4942498;28;20032;-68
2022/07/03 09:18:56;;;;;;;;;;;;;;;;;;4936869;28;20330;-68
2022/07/03 09:21:24;;;;;;;;;;;;;;;;;;4945545;28;19918;-69
2022/07/03 09:23:49;;;;;;;;;;;;;;;;;;4938773;28;19929;-70
2022/07/03 09:26:14;;;;;;;;;;;;;;;;;;4945102;28;19918;-69
2022/07/03 09:28:39;;;;;;;;;;;;;;;;;;4954184;28;19919;-70
2022/07/03 09:31:05;;;;;;;;;;;;;;;;;;4945635;28;20473;-70
2022/07/03 09:33:30;;;;;;;;;;;;;;;;;;4950794;28;19918;-70
2022/07/03 09:35:57;;;;;;;;;;;;;;;;;;4944709;28;20168;-70
2022/07/03 09:38:22;;;;;;;;;;;;;;;;;;4933983;28;20336;-69
2022/07/03 09:40:48;;;;;;;;;;;;;;;;;;4967670;28;19918;-72
2022/07/03 09:43:13;;;;;;;;;;;;;;;;;;4948999;28;19918;-71
2022/07/03 09:45:39;;;;;;;;;;;;;;;;;;4970435;28;19960;-71
2022/07/03 09:48:04;;;;;;;;;;;;;;;;;;4953193;28;19950;-71
2022/07/03 09:50:29;;;;;;;;;;;;;;;;;;4951355;28;20037;-72
2022/07/03 09:52:54;;;;;;;;;;;;;;;;;;4953545;28;19918;-69
2022/07/03 09:55:20;;;;;;;;;;;;;;;;;;4942739;28;19918;-69
2022/07/03 09:57:45;;;;;;;;;;;;;;;;;;4955363;28;20129;-71
2022/07/03 10:00:13;;;;;;;;;;;;;;;;;;4958556;28;19977;-71
2022/07/03 10:02:38;;;;;;;;;;;;;;;;;;4948881;28;20105;-69
2022/07/03 10:05:04;;;;;;;;;;;;;;;;;;4967769;28;19918;-72
2022/07/03 10:07:29;;;;;;;;;;;;;;;;;;4969177;28;20663;-70
2022/07/03 10:09:54;;;;;;;;;;;;;;;;;;4952098;28;20805;-70
2022/07/03 10:12:19;;;;;;;;;;;;;;;;;;4966320;28;20008;-71
2022/07/03 10:14:45;;;;;;;;;;;;;;;;;;4950619;28;19918;-70
2022/07/03 10:17:10;;;;;;;;;;;;;;;;;;4952202;28;19922;-72
2022/07/03 10:19:35;;;;;;;;;;;;;;;;;;4957087;28;20414;-72
2022/07/03 10:22:00;;;;;;;;;;;;;;;;;;4954611;28;20006;-70
2022/07/03 10:24:25;;;;;;;;;;;;;;;;;;4939549;28;19918;-71
2022/07/03 10:26:51;;;;;;;;;;;;;;;;;;4952235;28;19926;-68
2022/07/03 10:29:16;;;;;;;;;;;;;;;;;;4955790;28;20422;-72
2022/07/03 10:31:41;;;;;;;;;;;;;;;;;;4970237;28;20024;-72
2022/07/03 10:34:06;;;;;;;;;;;;;;;;;;4950215;28;19918;-70
2022/07/03 10:36:33;;;;;;;;;;;;;;;;;;4954361;28;20049;-71
2022/07/03 10:38:58;;;;;;;;;;;;;;;;;;4953688;28;19929;-71
2022/07/03 10:46:51;;;;;;;;;;;;;;;;;;4953764;28;19925;-73
2022/07/03 10:49:16;;;;;;;;;;;;;;;;;;4955013;28;19927;-71
2022/07/03 10:51:41;;;;;;;;;;;;;;;;;;4951249;28;19922;-72
2022/07/03 10:54:06;;;;;;;;;;;;;;;;;;4957037;28;19926;-71
2022/07/03 10:56:32;;;;;;;;;;;;;;;;;;4950209;28;20048;-72
2022/07/03 10:58:57;;;;;;;;;;;;;;;;;;4955573;28;20060;-73
2022/07/03 11:01:22;;;;;;;;;;;;;;;;;;4954763;28;19982;-69
2022/07/03 11:03:47;;;;;;;;;;;;;;;;;;4951801;28;20359;-72
2022/07/03 11:06:13;;;;;;;;;;;;;;;;;;4951802;28;19918;-70
2022/07/03 11:08:38;;;;;;;;;;;;;;;;;;4964490;28;20493;-72
2022/07/03 11:13:47;;;;;;;;;;;;;;;;;;4954521;28;19918;-72
2022/07/03 11:16:12;;;;;;;;;;;;;;;;;;4956002;28;19924;-70
2022/07/03 11:18:37;;;;;;;;;;;;;;;;;;4938554;28;19922;-73
2022/07/03 11:21:03;;;;;;;;;;;;;;;;;;4954276;28;19918;-69
2022/07/03 11:23:28;;;;;;;;;;;;;;;;;;4953349;28;19918;-72
2022/07/03 11:25:54;;;;;;;;;;;;;;;;;;4960236;28;20010;-72
2022/07/03 11:28:19;;;;;;;;;;;;;;;;;;4960500;28;20335;-69
2022/07/03 11:30:44;;;;;;;;;;;;;;;;;;4960212;28;20605;-72
2022/07/03 11:33:10;;;;;;;;;;;;;;;;;;4954929;28;20430;-70
2022/07/03 11:35:35;;;;;;;;;;;;;;;;;;4966330;28;19972;-71
2022/07/03 11:38:00;;;;;;;;;;;;;;;;;;4949794;28;20197;-75
2022/07/03 11:40:25;;;;;;;;;;;;;;;;;;4963766;28;20257;-73
2022/07/03 11:42:51;;;;;;;;;;;;;;;;;;4953114;28;20348;-73
2022/07/03 11:45:16;;;;;;;;;;;;;;;;;;4957489;28;20331;-73
2022/07/03 11:47:41;;;;;;;;;;;;;;;;;;4955145;28;19926;-74
2022/07/03 11:50:06;;;;;;;;;;;;;;;;;;4952919;28;20371;-73
2022/07/03 11:52:32;;;;;;;;;;;;;;;;;;4951416;28;20435;-72
2022/07/03 11:54:57;;;;;;;;;;;;;;;;;;4953437;28;20724;-75
2022/07/03 11:57:22;;;;;;;;;;;;;;;;;;4950140;28;20260;-73
2022/07/03 11:59:47;;;;;;;;;;;;;;;;;;4952534;28;20632;-76
2022/07/03 12:02:13;;;;;;;;;;;;;;;;;;4966337;28;20081;-76
2022/07/03 12:04:38;;;;;;;;;;;;;;;;;;4936012;28;20288;-75
2022/07/03 12:07:04;;;;;;;;;;;;;;;;;;4951409;28;21558;-74
2022/07/03 12:09:35;;;;;;;;;;;;;;;;;;4954074;28;19918;-75
2022/07/03 12:12:00;;;;;;;;;;;;;;;;;;4953389;28;19919;-74
2022/07/03 12:14:25;;;;;;;;;;;;;;;;;;4953508;28;19922;-74
2022/07/03 12:16:51;;;;;;;;;;;;;;;;;;4966893;28;20394;-72
2022/07/03 12:19:16;;;;;;;;;;;;;;;;;;4951917;28;20409;-75
2022/07/03 12:21:41;;;;;;;;;;;;;;;;;;4953382;28;19922;-76
2022/07/03 12:24:06;;;;;;;;;;;;;;;;;;4951464;28;20299;-75
2022/07/03 12:26:32;;;;;;;;;;;;;;;;;;4951611;28;19919;-75
2022/07/03 12:28:57;;;;;;;;;;;;;;;;;;4951092;28;19969;-74
2022/07/03 12:31:22;;;;;;;;;;;;;;;;;;4952340;28;19926;-76
2022/07/03 12:33:47;;;;;;;;;;;;;;;;;;4952461;28;19956;-73
2022/07/03 12:36:12;;;;;;;;;;;;;;;;;;4951056;28;19921;-73
2022/07/03 12:38:39;;;;;;;;;;;;;;;;;;4949452;28;19929;-73
2022/07/03 12:41:05;;;;;;;;;;;;;;;;;;4951325;28;19982;-74
2022/07/03 12:43:30;;;;;;;;;;;;;;;;;;4953430;28;19922;-76
2022/07/03 12:45:55;;;;;;;;;;;;;;;;;;4957069;28;20024;-74
2022/07/03 12:48:20;;;;;;;;;;;;;;;;;;4962497;28;19922;-76
2022/07/03 12:50:46;;;;;;;;;;;;;;;;;;4935612;28;20148;-75
2022/07/03 12:53:11;;;;;;;;;;;;;;;;;;4953659;28;19972;-72
2022/07/03 12:55:36;;;;;;;;;;;;;;;;;;4952956;28;19964;-74
2022/07/03 13:00:49;;;;;;;;;;;;;;;;;;4945852;28;19922;-74
2022/07/03 13:03:14;;;;;;;;;;;;;;;;;;4945645;28;19918;-74
2022/07/03 13:05:39;;;;;;;;;;;;;;;;;;4953390;28;20633;-73
2022/07/03 13:08:05;;;;;;;;;;;;;;;;;;4945758;28;20367;-74
2022/07/03 13:10:30;;;;;;;;;;;;;;;;;;4948475;28;20462;-73
2022/07/03 13:12:55;;;;;;;;;;;;;;;;;;4955266;28;20260;-72
2022/07/03 13:15:20;;;;;;;;;;;;;;;;;;4964182;28;19926;-75
2022/07/03 13:17:46;;;;;;;;;;;;;;;;;;4953951;28;20223;-74
2022/07/03 13:20:11;;;;;;;;;;;;;;;;;;4950157;28;19961;-75
2022/07/03 13:22:36;;;;;;;;;;;;;;;;;;4949217;28;19918;-74
2022/07/03 13:25:01;;;;;;;;;;;;;;;;;;4954098;28;19925;-75
2022/07/03 13:27:26;;;;;;;;;;;;;;;;;;4963358;28;19973;-72
2022/07/03 13:29:52;;;;;;;;;;;;;;;;;;4954808;28;19914;-72
2022/07/03 13:32:17;;;;;;;;;;;;;;;;;;4948400;28;19914;-74
2022/07/03 13:34:42;;;;;;;;;;;;;;;;;;4963280;28;19923;-74
2022/07/03 13:37:08;;;;;;;;;;;;;;;;;;4956425;28;19922;-74
2022/07/03 13:39:33;;;;;;;;;;;;;;;;;;4946812;28;19918;-75
2022/07/03 13:41:58;;;;;;;;;;;;;;;;;;4954546;28;19964;-70
2022/07/03 13:44:23;;;;;;;;;;;;;;;;;;4947710;28;19934;-72
2022/07/03 13:46:49;;;;;;;;;;;;;;;;;;4961941;28;19929;-71
2022/07/03 13:49:14;;;;;;;;;;;;;;;;;;4954954;28;19973;-72
2022/07/03 13:51:39;;;;;;;;;;;;;;;;;;4964787;28;19938;-72
2022/07/03 13:54:05;;;;;;;;;;;;;;;;;;4938494;28;20391;-70
2022/07/03 13:56:30;;;;;;;;;;;;;;;;;;4946320;28;20898;-73
2022/07/03 13:58:55;;;;;;;;;;;;;;;;;;4946864;28;19961;-73
2022/07/03 14:01:20;;;;;;;;;;;;;;;;;;4953355;28;20271;-70
2022/07/03 14:03:46;;;;;;;;;;;;;;;;;;4949303;28;20523;-74
2022/07/03 14:06:11;;;;;;;;;;;;;;;;;;4966399;28;19919;-70
2022/07/03 14:08:36;;;;;;;;;;;;;;;;;;4946939;28;19926;-72
2022/07/03 14:11:01;;;;;;;;;;;;;;;;;;4947766;28;19945;-73
2022/07/03 14:13:27;;;;;;;;;;;;;;;;;;4954716;28;19929;-74
2022/07/03 14:15:52;;;;;;;;;;;;;;;;;;4948343;28;20677;-74
2022/07/03 14:18:17;;;;;;;;;;;;;;;;;;4953638;28;20343;-73
2022/07/03 14:20:43;;;;;;;;;;;;;;;;;;4948878;28;19918;-73
2022/07/03 14:23:08;;;;;;;;;;;;;;;;;;4948362;28;20327;-73
2022/07/03 14:25:36;;;;;;;;;;;;;;;;;;4953369;28;20411;-71
2022/07/03 14:33:30;;;;;;;;;;;;;;;;;;4955564;28;19929;-71
2022/07/03 14:35:55;;;;;;;;;;;;;;;;;;4946157;28;19917;-74
2022/07/03 14:38:20;;;;;;;;;;;;;;;;;;4955344;28;20049;-73
2022/07/03 14:40:46;;;;;;;;;;;;;;;;;;4960196;28;19985;-71
2022/07/03 14:43:11;;;;;;;;;;;;;;;;;;4948791;28;19972;-73
2022/07/03 14:45:37;;;;;;;;;;;;;;;;;;4954401;28;19922;-71
2022/07/03 14:48:02;;;;;;;;;;;;;;;;;;4948663;28;19926;-71
2022/07/03 14:50:27;;;;;;;;;;;;;;;;;;4952835;28;20391;-74
2022/07/03 14:52:52;;;;;;;;;;;;;;;;;;4934021;28;19922;-74
2022/07/03 14:55:18;;;;;;;;;;;;;;;;;;4947911;28;19964;-74
2022/07/03 14:57:44;;;;;;;;;;;;;;;;;;4969325;28;19973;-73
2022/07/03 15:00:09;;;;;;;;;;;;;;;;;;4945104;28;19958;-74
2022/07/03 15:02:35;;;;;;;;;;;;;;;;;;4953984;28;19958;-73
2022/07/03 15:05:00;;;;;;;;;;;;;;;;;;4957314;28;19926;-73
2022/07/03 15:07:26;;;;;;;;;;;;;;;;;;4965152;28;19933;-70
2022/07/03 15:09:51;;;;;;;;;;;;;;;;;;4956387;28;19918;-74
2022/07/03 15:12:26;;;;;;;;;;;;;;;;;;4946052;28;19923;-72
2022/07/03 15:14:51;;;;;;;;;;;;;;;;;;4952138;28;19918;-73
2022/07/03 15:17:17;;;;;;;;;;;;;;;;;;4947408;28;19922;-70
2022/07/03 15:19:42;;;;;;;;;;;;;;;;;;4956741;28;20729;-72
2022/07/03 15:22:10;;;;;;;;;;;;;;;;;;4968088;28;19918;-74
2022/07/03 15:24:35;;;;;;;;;;;;;;;;;;4962783;28;19918;-72
2022/07/03 15:27:00;;;;;;;;;;;;;;;;;;4955011;28;19930;-75
2022/07/03 15:29:25;;;;;;;;;;;;;;;;;;4960812;28;19926;-74
2022/07/03 15:31:50;;;;;;;;;;;;;;;;;;4956229;28;19968;-74
2022/07/03 15:34:16;;;;;;;;;;;;;;;;;;4966319;28;20554;-72
2022/07/03 15:36:41;;;;;;;;;;;;;;;;;;4964958;28;20021;-71
2022/07/03 15:39:06;;;;;;;;;;;;;;;;;;4952728;28;19926;-74
2022/07/03 15:41:31;;;;;;;;;;;;;;;;;;4952632;28;19989;-73
2022/07/03 15:43:57;;;;;;;;;;;;;;;;;;4952385;28;20025;-74
2022/07/03 15:46:22;;;;;;;;;;;;;;;;;;4944101;28;19954;-75
2022/07/03 15:48:47;;;;;;;;;;;;;;;;;;4953006;28;19973;-72
2022/07/03 15:51:12;;;;;;;;;;;;;;;;;;4938172;28;19923;-72
2022/07/03 15:53:37;;;;;;;;;;;;;;;;;;4950586;28;19933;-71
2022/07/03 15:56:03;;;;;;;;;;;;;;;;;;4951840;28;19959;-74
2022/07/03 15:58:28;;;;;;;;;;;;;;;;;;4971125;28;19985;-73
2022/07/03 16:03:37;;;;;;;;;;;;;;;;;;4950824;28;19918;-73
2022/07/03 16:06:02;;;;;;;;;;;;;;;;;;4951274;28;19918;-72
2022/07/03 16:08:27;;;;;;;;;;;;;;;;;;4953586;28;19922;-73
2022/07/03 16:10:53;;;;;;;;;;;;;;;;;;4937107;28;19925;-71
2022/07/03 16:13:18;;;;;;;;;;;;;;;;;;4952283;28;20104;-72
2022/07/03 16:15:43;;;;;;;;;;;;;;;;;;4950557;28;20529;-73
2022/07/03 16:18:08;;;;;;;;;;;;;;;;;;4953242;28;19918;-74
2022/07/03 16:20:34;;;;;;;;;;;;;;;;;;4955598;28;19915;-72
2022/07/03 16:22:59;;;;;;;;;;;;;;;;;;4968842;28;19927;-73
2022/07/03 16:25:25;;;;;;;;;;;;;;;;;;4959303;28;19985;-74
2022/07/03 16:27:50;;;;;;;;;;;;;;;;;;4965291;28;19961;-73
2022/07/03 16:30:16;;;;;;;;;;;;;;;;;;4957111;28;19930;-73
2022/07/03 16:32:41;;;;;;;;;;;;;;;;;;4956758;28;19918;-75
2022/07/03 16:35:07;;;;;;;;;;;;;;;;;;4958301;28;20445;-74
2022/07/03 16:37:32;;;;;;;;;;;;;;;;;;4969494;28;19919;-74
2022/07/03 16:39:57;;;;;;;;;;;;;;;;;;4951892;28;20013;-73
2022/07/03 16:42:23;;;;;;;;;;;;;;;;;;4958871;28;19924;-73
2022/07/03 16:44:49;;;;;;;;;;;;;;;;;;4961656;28;20383;-71
2022/07/03 16:47:14;;;;;;;;;;;;;;;;;;4955424;28;19922;-74
2022/07/03 16:49:39;;;;;;;;;;;;;;;;;;4959090;28;19969;-74
2022/07/03 16:52:04;;;;;;;;;;;;;;;;;;4959232;28;19932;-74
2022/07/03 16:54:29;;;;;;;;;;;;;;;;;;4957930;28;20109;-72
2022/07/03 16:56:55;;;;;;;;;;;;;;;;;;4957295;28;19919;-74